createdAt,value
2023-01-27T00:00:26.408Z,47.25
2023-01-27T00:02:52.961Z,43.20
2023-01-27T00:05:19.472Z,51.47
2023-01-27T00:07:46.819Z,42.88
2023-01-27T00:10:16.197Z,47.17
2023-01-27T00:13:02.882Z,47.85
2023-01-27T00:15:30.545Z,51.15
2023-01-27T00:17:57.215Z,50.63
2023-01-27T00:20:43.105Z,47.22
2023-01-27T00:23:37.109Z,57.42
2023-01-27T00:26:08.857Z,47.92
2023-01-27T00:28:36.517Z,56.72
2023-01-27T00:31:04.167Z,47.05
2023-01-27T00:33:30.640Z,55.25
2023-01-27T00:36:03.435Z,50.83
2023-01-27T00:38:31.744Z,47.67
2023-01-27T00:41:17.139Z,61.13
2023-01-27T00:43:43.571Z,53.63
2023-01-27T00:46:10.047Z,52.53
2023-01-27T00:48:36.558Z,57.75
2023-01-27T00:51:03.091Z,52.65
2023-01-27T00:53:29.770Z,55.78
2023-01-27T00:55:58.087Z,57.58
2023-01-27T00:58:28.121Z,54.38
2023-01-27T01:00:59.675Z,35.78
2023-01-27T01:03:27.397Z,56.92
2023-01-27T01:05:53.870Z,57.55
2023-01-27T01:08:20.324Z,67.40
2023-01-27T01:10:46.753Z,63.83
2023-01-27T01:13:13.180Z,59.13
2023-01-27T01:15:41.246Z,60.47
2023-01-27T01:18:10.091Z,58.17
2023-01-27T01:20:43.145Z,63.40
2023-01-27T01:23:10.181Z,61.47
2023-01-27T01:25:36.596Z,61.80
2023-01-27T01:28:05.537Z,53.70
2023-01-27T01:30:34.659Z,58.13
2023-01-27T01:33:01.710Z,51.97
2023-01-27T01:35:29.533Z,49.85
2023-01-27T01:37:56.001Z,57.97
2023-01-27T01:40:25.516Z,58.20
2023-01-27T01:43:02.509Z,60.90
2023-01-27T01:45:51.312Z,54.38
2023-01-27T01:48:48.828Z,61.20
2023-01-27T01:51:34.917Z,54.65
2023-01-27T01:54:11.869Z,54.85
2023-01-27T01:56:49.672Z,50.42
2023-01-27T01:59:26.951Z,56.45
2023-01-27T02:01:57.007Z,68.57
2023-01-27T02:04:29.091Z,54.10
2023-01-27T02:09:34.498Z,59.17
2023-01-27T02:12:01.155Z,52.88
2023-01-27T02:14:27.614Z,51.50
2023-01-27T02:17:14.922Z,57.25
2023-01-27T02:20:12.179Z,61.13
2023-01-27T02:22:47.363Z,63.63
2023-01-27T02:25:26.181Z,59.30
2023-01-27T02:27:52.604Z,63.03
2023-01-27T02:30:19.115Z,61.80
2023-01-27T02:32:45.541Z,55.70
2023-01-27T02:35:17.019Z,54.53
2023-01-27T02:37:43.562Z,60.88
2023-01-27T03:06:38.792Z,45.28
2023-01-27T03:09:05.800Z,37.30
2023-01-27T03:11:51.097Z,48.00
2023-01-27T03:14:18.335Z,46.97
2023-01-27T03:17:05.587Z,38.70
2023-01-27T03:19:32.290Z,39.50
2023-01-27T03:22:01.760Z,45.13
2023-01-27T03:24:29.694Z,39.33
2023-01-27T03:26:59.535Z,43.35
2023-01-27T03:29:56.358Z,41.88
2023-01-27T03:32:24.799Z,43.00
2023-01-27T03:35:09.754Z,35.03
2023-01-27T03:37:55.207Z,38.60
2023-01-27T03:40:40.396Z,37.58
2023-01-27T03:43:25.744Z,45.08
2023-01-27T03:46:10.753Z,38.50
2023-01-27T03:48:38.040Z,41.47
2023-01-27T03:51:07.068Z,45.25
2023-01-27T03:53:34.436Z,42.83
2023-01-27T03:56:01.015Z,39.85
2023-01-27T03:58:29.582Z,36.67
2023-01-27T04:00:58.364Z,40.42
2023-01-27T04:03:45.971Z,38.42
2023-01-27T04:06:33.695Z,43.67
2023-01-27T04:09:00.167Z,41.58
2023-01-27T04:11:45.254Z,31.48
2023-01-27T04:14:12.642Z,40.33
2023-01-27T04:16:39.143Z,35.55
2023-01-27T04:19:08.168Z,42.85
2023-01-27T04:21:34.991Z,37.25
2023-01-27T04:24:01.978Z,37.22
2023-01-27T04:26:33.183Z,37.95
2023-01-27T04:29:00.863Z,38.17
2023-01-27T04:31:27.342Z,38.83
2023-01-27T04:33:53.782Z,43.50
2023-01-27T04:36:20.211Z,34.90
2023-01-27T04:38:46.761Z,41.25
2023-01-27T04:41:13.453Z,41.60
2023-01-27T04:43:39.843Z,40.28
2023-01-27T04:46:06.533Z,49.53
2023-01-27T04:48:33.129Z,44.42
2023-01-27T04:50:59.530Z,47.15
2023-01-27T04:53:25.918Z,41.45
2023-01-27T04:55:52.311Z,40.58
2023-01-27T04:58:18.726Z,43.20
2023-01-27T05:00:45.243Z,46.45
2023-01-27T05:03:12.011Z,53.65
2023-01-27T05:05:38.974Z,45.40
2023-01-27T05:08:07.036Z,42.38
2023-01-27T05:10:33.607Z,50.38
2023-01-27T05:13:01.785Z,48.83
2023-01-27T05:15:29.400Z,46.33
2023-01-27T05:17:55.812Z,48.10
2023-01-27T05:20:22.657Z,50.20
2023-01-27T05:22:51.055Z,48.83
2023-01-27T05:25:17.707Z,49.08
2023-01-27T05:27:44.558Z,47.67
2023-01-27T05:30:11.444Z,57.80
2023-01-27T05:32:37.815Z,51.33
2023-01-27T05:35:04.537Z,46.47
2023-01-27T05:37:30.944Z,48.55
2023-01-27T05:39:58.645Z,49.00
2023-01-27T05:42:25.026Z,50.88
2023-01-27T05:44:51.446Z,49.75
2023-01-27T05:47:17.869Z,45.80
2023-01-27T05:49:44.257Z,48.70
2023-01-27T05:52:10.658Z,44.95
2023-01-27T05:54:37.080Z,51.85
2023-01-27T05:57:03.473Z,44.38
2023-01-27T05:59:29.864Z,48.00
2023-01-27T06:01:56.265Z,42.25
2023-01-27T06:04:22.722Z,44.50
2023-01-27T06:06:49.149Z,45.25
2023-01-27T06:09:15.544Z,45.30
2023-01-27T06:11:42.008Z,47.80
2023-01-27T06:14:08.752Z,41.10
2023-01-27T06:16:35.196Z,40.55
2023-01-27T06:19:01.611Z,40.15
2023-01-27T06:21:28.032Z,41.53
2023-01-27T06:23:54.489Z,35.00
2023-01-27T06:26:20.989Z,36.63
2023-01-27T06:28:47.594Z,39.85
2023-01-27T06:31:17.460Z,40.10
2023-01-27T06:33:44.260Z,43.60
2023-01-27T06:36:17.396Z,35.97
2023-01-27T06:38:44.677Z,43.50
2023-01-27T06:41:11.341Z,36.90
2023-01-27T06:43:37.750Z,38.35
2023-01-27T06:46:05.900Z,37.50
2023-01-27T06:48:32.652Z,40.17
2023-01-27T06:51:00.138Z,37.15
2023-01-27T06:53:26.722Z,42.65
2023-01-27T06:56:00.450Z,32.08
2023-01-27T06:58:27.659Z,36.33
2023-01-27T07:00:54.763Z,34.83
2023-01-27T07:03:21.335Z,38.20
2023-01-27T07:05:47.774Z,39.03
2023-01-27T07:08:14.149Z,37.80
2023-01-27T07:10:40.558Z,33.13
2023-01-27T07:13:09.112Z,35.20
2023-01-27T07:15:35.669Z,37.30
2023-01-27T07:18:02.642Z,36.40
2023-01-27T07:20:29.702Z,31.27
2023-01-27T07:23:00.066Z,37.10
2023-01-27T07:25:26.641Z,30.23
2023-01-27T07:27:53.432Z,26.35
2023-01-27T07:30:19.904Z,31.98
2023-01-27T07:32:46.320Z,27.85
2023-01-27T07:35:12.728Z,30.83
2023-01-27T07:37:39.128Z,26.55
2023-01-27T07:40:06.033Z,27.02
2023-01-27T07:42:32.440Z,31.63
2023-01-27T07:44:59.083Z,25.85
2023-01-27T07:47:25.524Z,28.38
2023-01-27T07:49:51.941Z,37.30
2023-01-27T07:52:18.340Z,27.15
2023-01-27T07:54:44.808Z,32.65
2023-01-27T07:57:11.216Z,26.58
2023-01-27T07:59:37.617Z,30.48
2023-01-27T08:02:04.053Z,34.45
2023-01-27T08:04:33.156Z,27.55
2023-01-27T08:07:04.006Z,27.38
2023-01-27T08:09:30.397Z,26.90
2023-01-27T08:11:56.788Z,31.58
2023-01-27T08:14:23.179Z,34.70
2023-01-27T08:16:49.601Z,28.98
2023-01-27T08:20:00.168Z,34.38
2023-01-27T08:22:28.585Z,38.53
2023-01-27T08:24:55.072Z,30.85
2023-01-27T08:27:21.871Z,32.13
2023-01-27T08:29:48.491Z,32.03
2023-01-27T08:32:15.291Z,27.30
2023-01-27T08:34:41.886Z,34.08
2023-01-27T08:37:08.837Z,31.08
2023-01-27T08:39:35.235Z,39.88
2023-01-27T08:42:01.680Z,30.90
2023-01-27T08:44:28.964Z,30.92
2023-01-27T08:46:55.379Z,33.67
2023-01-27T08:49:21.802Z,40.85
2023-01-27T08:51:48.345Z,34.92
2023-01-27T08:54:15.015Z,31.23
2023-01-27T08:56:41.438Z,35.85
2023-01-27T08:59:07.833Z,34.20
2023-01-27T09:01:34.294Z,34.20
2023-01-27T09:04:00.708Z,32.20
2023-01-27T09:06:27.140Z,32.15
2023-01-27T09:09:12.392Z,39.20
2023-01-27T09:11:41.678Z,33.60
2023-01-27T09:14:08.350Z,37.58
2023-01-27T09:16:34.841Z,32.58
2023-01-27T09:19:01.295Z,38.28
2023-01-27T09:21:27.858Z,34.38
2023-01-27T09:23:54.299Z,34.88
2023-01-27T09:26:20.705Z,31.33
2023-01-27T09:28:47.101Z,26.80
2023-01-27T09:31:13.632Z,35.05
2023-01-27T09:33:40.080Z,34.47
2023-01-27T09:36:17.534Z,29.05
2023-01-27T09:38:52.408Z,30.35
2023-01-27T09:41:42.883Z,27.50
2023-01-27T09:44:44.754Z,31.80
2023-01-27T09:47:40.631Z,30.95
2023-01-27T09:50:44.769Z,27.80
2023-01-27T09:53:44.821Z,27.10
2023-01-27T09:56:43.489Z,27.67
2023-01-27T09:59:29.030Z,28.42
2023-01-27T10:02:18.116Z,27.88
2023-01-27T10:04:59.792Z,23.10
2023-01-27T10:08:01.446Z,30.83
2023-01-27T10:10:44.944Z,23.17
2023-01-27T10:13:23.700Z,27.02
2023-01-27T10:16:04.308Z,25.05
2023-01-27T10:18:57.438Z,20.88
2023-01-27T10:21:43.556Z,27.40
2023-01-27T10:24:38.539Z,19.70
2023-01-27T10:27:17.988Z,21.25
2023-01-27T10:29:57.342Z,14.88
2023-01-27T10:32:41.200Z,19.05
2023-01-27T10:35:13.260Z,16.10
2023-01-27T10:38:04.757Z,12.93
2023-01-27T10:40:52.963Z,20.08
2023-01-27T10:43:35.963Z,19.60
2023-01-27T10:46:02.341Z,17.00
2023-01-27T10:48:43.653Z,12.00
2023-01-27T10:51:32.565Z,16.73
2023-01-27T10:54:25.336Z,14.15
2023-01-27T10:56:58.310Z,14.32
2023-01-27T11:00:05.264Z,13.13
2023-01-27T11:02:42.022Z,16.08
2023-01-27T11:05:11.147Z,14.25
2023-01-27T11:07:51.042Z,18.55
2023-01-27T11:10:19.540Z,12.52
2023-01-27T11:12:49.509Z,12.13
2023-01-27T11:15:24.047Z,15.55
2023-01-27T11:17:57.704Z,13.48
2023-01-27T11:20:31.826Z,15.20
2023-01-27T11:23:05.288Z,14.05
2023-01-27T11:25:47.243Z,12.02
2023-01-27T11:28:38.857Z,11.50
2023-01-27T11:31:29.428Z,11.95
2023-01-27T11:34:13.154Z,18.20
2023-01-27T11:36:39.562Z,16.10
2023-01-27T11:39:06.713Z,14.07
2023-01-27T11:41:40.034Z,15.00
2023-01-27T11:44:21.080Z,17.60
2023-01-27T11:46:48.994Z,22.73
2023-01-27T11:49:21.801Z,14.27
2023-01-27T11:51:49.262Z,18.52
2023-01-27T11:54:23.686Z,16.95
2023-01-27T11:56:50.659Z,10.75
2023-01-27T11:59:34.681Z,13.38
2023-01-27T12:02:06.961Z,11.52
2023-01-27T12:04:52.052Z,13.98
2023-01-27T12:07:39.861Z,19.25
2023-01-27T12:10:28.090Z,17.65
2023-01-27T12:12:55.552Z,14.05
2023-01-27T12:15:25.632Z,16.48
2023-01-27T12:18:13.889Z,13.15
2023-01-27T12:20:49.128Z,18.83
2023-01-27T12:23:27.308Z,18.70
2023-01-27T12:25:57.792Z,22.58
2023-01-27T12:28:49.666Z,15.38
2023-01-27T12:31:31.492Z,25.90
2023-01-27T12:34:02.289Z,27.33
2023-01-27T12:36:30.334Z,29.65
2023-01-27T12:39:01.001Z,31.00
2023-01-27T12:41:29.214Z,23.52
2023-01-27T12:44:08.372Z,34.92
2023-01-27T12:46:34.892Z,27.63
2023-01-27T12:49:14.842Z,25.02
2023-01-27T12:51:51.515Z,19.52
2023-01-27T12:54:27.536Z,25.33
2023-01-27T12:57:00.738Z,21.40
2023-01-27T12:59:28.243Z,30.73
2023-01-27T13:02:12.187Z,17.15
2023-01-27T13:04:38.667Z,26.40
2023-01-27T13:07:11.653Z,22.80
2023-01-27T13:09:47.167Z,29.50
2023-01-27T13:12:21.090Z,24.80
2023-01-27T13:14:54.218Z,28.17
2023-01-27T13:17:54.109Z,19.98
2023-01-27T13:20:25.255Z,27.55
2023-01-27T13:25:28.227Z,25.40
2023-01-27T13:27:59.195Z,23.23
2023-01-27T13:30:32.128Z,22.33
2023-01-27T13:33:06.915Z,22.85
2023-01-27T13:35:40.238Z,18.42
2023-01-27T13:38:37.739Z,15.98
2023-01-27T13:41:15.280Z,17.80
2023-01-27T13:43:55.307Z,24.40
2023-01-27T13:46:33.201Z,20.73
2023-01-27T13:49:04.936Z,19.00
2023-01-27T13:51:33.294Z,18.13
2023-01-27T13:54:02.507Z,20.73
2023-01-27T13:56:49.340Z,17.98
2023-01-27T13:59:40.442Z,14.88
2023-01-27T14:02:29.628Z,15.88
2023-01-27T14:05:06.821Z,19.50
2023-01-27T14:07:51.227Z,20.02
2023-01-27T14:10:41.324Z,18.83
2023-01-27T14:13:32.544Z,14.40
2023-01-27T14:16:09.771Z,14.85
2023-01-27T14:18:49.064Z,14.45
2023-01-27T14:21:43.988Z,18.60
2023-01-27T14:24:40.098Z,12.30
2023-01-27T14:27:16.160Z,14.18
2023-01-27T14:29:46.327Z,19.65
2023-01-27T14:32:26.253Z,12.57
2023-01-27T14:35:05.666Z,15.35
2023-01-27T14:37:45.569Z,17.65
2023-01-27T14:40:17.426Z,16.02
2023-01-27T14:42:59.511Z,17.98
2023-01-27T14:45:34.684Z,20.48
2023-01-27T14:48:19.616Z,17.83
2023-01-27T14:50:58.695Z,19.98
2023-01-27T14:53:34.276Z,19.52
2023-01-27T14:56:47.378Z,19.63
2023-01-27T14:59:53.056Z,18.92
2023-01-27T15:02:48.263Z,23.05
2023-01-27T15:05:32.598Z,16.17
2023-01-27T15:08:13.734Z,18.38
2023-01-27T15:10:58.905Z,17.17
2023-01-27T15:13:31.423Z,21.13
2023-01-27T15:16:19.373Z,21.08
2023-01-27T15:19:05.259Z,19.33
2023-01-27T15:21:45.567Z,18.70
2023-01-27T15:24:27.188Z,17.50
2023-01-27T15:26:54.571Z,16.20
2023-01-27T15:29:26.282Z,12.65
2023-01-27T15:32:12.641Z,13.60
2023-01-27T15:34:39.368Z,14.30
2023-01-27T15:37:19.419Z,15.70
2023-01-27T15:40:05.690Z,18.25
2023-01-27T15:43:06.537Z,18.33
2023-01-27T15:45:38.344Z,13.07
2023-01-27T15:48:14.774Z,11.23
2023-01-27T15:50:53.296Z,13.18
2023-01-27T15:53:33.419Z,11.40
2023-01-27T15:56:01.309Z,10.05
2023-01-27T15:58:45.981Z,14.57
2023-01-27T16:01:30.172Z,9.63
2023-01-27T16:04:12.965Z,10.80
2023-01-27T16:07:01.980Z,13.38
2023-01-27T16:09:35.108Z,10.85
2023-01-27T16:12:26.839Z,9.88
2023-01-27T16:15:15.582Z,8.25
2023-01-27T16:18:21.255Z,9.95
2023-01-27T16:21:08.348Z,10.98
2023-01-27T16:23:58.202Z,8.93
2023-01-27T16:26:37.437Z,14.55
2023-01-27T16:29:06.343Z,14.07
2023-01-27T16:31:32.772Z,9.63
2023-01-27T16:34:01.633Z,9.25
2023-01-27T16:36:31.206Z,6.63
2023-01-27T16:39:03.180Z,12.20
2023-01-27T16:41:35.978Z,8.98
2023-01-27T16:44:16.664Z,6.15
2023-01-27T16:46:48.269Z,6.35
2023-01-27T16:49:19.905Z,12.57
2023-01-27T16:51:55.198Z,7.07
2023-01-27T16:54:42.680Z,14.90
2023-01-27T16:57:27.611Z,8.60
2023-01-27T16:59:55.632Z,5.90
2023-01-27T17:02:26.526Z,4.80
2023-01-27T17:04:56.176Z,10.35
2023-01-27T17:07:22.737Z,9.38
2023-01-27T17:09:57.881Z,9.93
2023-01-27T17:12:34.181Z,8.32
2023-01-27T17:15:15.062Z,7.20
2023-01-27T17:17:42.220Z,6.97
2023-01-27T17:20:19.657Z,10.27
2023-01-27T17:22:47.347Z,5.72
2023-01-27T17:25:18.016Z,11.38
2023-01-27T17:27:45.388Z,9.65
2023-01-27T17:30:23.936Z,7.88
2023-01-27T17:33:01.933Z,8.43
2023-01-27T17:35:32.923Z,8.45
2023-01-27T17:38:16.638Z,10.88
2023-01-27T17:40:45.291Z,5.63
2023-01-27T17:43:32.067Z,7.18
2023-01-27T17:46:04.613Z,10.23
2023-01-27T17:48:38.260Z,10.63
2023-01-27T17:51:05.212Z,11.18
2023-01-27T17:53:40.086Z,12.13
2023-01-27T17:56:15.572Z,11.40
2023-01-27T17:58:45.369Z,6.75
2023-01-27T18:01:15.348Z,9.23
2023-01-27T18:03:41.813Z,6.60
2023-01-27T18:06:13.507Z,8.57
2023-01-27T18:08:48.525Z,5.38
2023-01-27T18:11:25.252Z,8.02
2023-01-27T18:13:54.135Z,8.77
2023-01-27T18:16:23.453Z,6.78
2023-01-27T18:18:50.226Z,6.15
2023-01-27T18:21:21.940Z,6.63
2023-01-27T18:23:49.760Z,5.72
2023-01-27T18:26:54.543Z,5.32
2023-01-27T18:29:35.020Z,6.88
2023-01-27T18:32:17.606Z,4.55
2023-01-27T18:34:49.289Z,8.38
2023-01-27T18:37:34.376Z,6.18
2023-01-27T18:40:17.799Z,8.55
2023-01-27T18:42:44.549Z,4.82
2023-01-27T18:45:12.417Z,12.27
2023-01-27T18:47:40.215Z,5.47
2023-01-27T18:50:19.261Z,8.48
2023-01-27T18:52:46.794Z,10.32
2023-01-27T18:55:24.622Z,6.55
2023-01-27T18:57:53.993Z,8.73
2023-01-27T19:00:37.434Z,14.68
2023-01-27T19:03:07.348Z,8.05
2023-01-27T19:05:35.697Z,14.02
2023-01-27T19:08:02.673Z,9.25
2023-01-27T19:10:32.004Z,8.07
2023-01-27T19:13:00.291Z,7.90
2023-01-27T19:15:30.182Z,9.43
2023-01-27T19:17:58.852Z,7.25
2023-01-27T19:20:28.113Z,7.55
2023-01-27T19:22:55.699Z,9.93
2023-01-27T19:25:24.563Z,11.40
2023-01-27T19:27:53.922Z,6.78
2023-01-27T19:30:26.269Z,7.07
2023-01-27T19:32:55.071Z,11.57
2023-01-27T19:35:27.492Z,7.38
2023-01-27T19:37:56.638Z,7.40
2023-01-27T19:40:25.925Z,12.20
2023-01-27T19:42:52.714Z,9.40
2023-01-27T19:45:20.130Z,8.90
2023-01-27T19:47:49.299Z,6.25
2023-01-27T19:50:23.282Z,7.30
2023-01-27T19:52:50.108Z,7.13
2023-01-27T19:55:18.242Z,9.55
2023-01-27T19:57:45.173Z,14.75
2023-01-27T20:00:21.628Z,6.50
2023-01-27T20:02:48.138Z,13.18
2023-01-27T20:05:15.030Z,8.95
2023-01-27T20:07:43.443Z,12.20
2023-01-27T20:10:33.495Z,6.90
2023-01-27T20:13:05.657Z,9.02
2023-01-27T20:15:36.920Z,10.43
2023-01-27T20:18:04.407Z,7.40
2023-01-27T20:20:30.802Z,8.13
2023-01-27T20:22:57.315Z,8.75
2023-01-27T20:25:26.253Z,6.97
2023-01-27T20:27:57.496Z,9.68
2023-01-27T20:30:26.363Z,4.13
2023-01-27T20:32:55.117Z,6.05
2023-01-27T20:35:22.839Z,5.30
2023-01-27T20:37:50.368Z,8.13
2023-01-27T20:40:22.527Z,5.32
2023-01-27T20:42:49.616Z,10.05
2023-01-27T20:45:16.989Z,6.20
2023-01-27T20:47:47.887Z,7.93
2023-01-27T20:50:14.777Z,10.45
2023-01-27T20:52:41.934Z,8.50
2023-01-27T20:55:09.530Z,7.60
2023-01-27T20:57:36.005Z,5.93
2023-01-27T21:00:03.132Z,7.05
2023-01-27T21:02:30.364Z,9.15
2023-01-27T21:04:57.124Z,12.23
2023-01-27T21:07:24.702Z,9.60
2023-01-27T21:09:53.313Z,9.38
2023-01-27T21:12:21.009Z,9.55
2023-01-27T21:14:47.407Z,8.60
2023-01-27T21:17:13.877Z,10.65
2023-01-27T21:19:40.269Z,6.95
2023-01-27T21:22:06.770Z,7.13
2023-01-27T21:24:33.515Z,7.60
2023-01-27T21:26:59.926Z,9.98
2023-01-27T21:29:26.365Z,10.73
2023-01-27T21:31:52.970Z,13.95
2023-01-27T21:34:19.820Z,8.30
2023-01-27T21:36:46.285Z,10.13
2023-01-27T21:39:12.862Z,21.67
2023-01-27T21:41:54.390Z,11.55
2023-01-27T21:44:41.756Z,8.32
2023-01-27T21:47:11.365Z,7.93
2023-01-27T21:49:58.578Z,10.05
2023-01-27T21:52:30.379Z,12.18
2023-01-27T21:54:56.791Z,5.35
2023-01-27T21:57:23.227Z,10.30
2023-01-27T21:59:49.630Z,9.80
2023-01-27T22:02:16.864Z,12.05
2023-01-27T22:04:43.798Z,12.43
2023-01-27T22:07:12.420Z,11.48
2023-01-27T22:09:39.667Z,10.18
2023-01-27T22:12:08.365Z,9.38
2023-01-27T22:14:35.020Z,7.68
2023-01-27T22:17:01.500Z,6.95
2023-01-27T22:19:29.253Z,13.23
2023-01-27T22:21:55.854Z,11.32
2023-01-27T22:24:22.478Z,12.38
2023-01-27T22:26:48.988Z,8.07
2023-01-27T22:29:15.816Z,9.02
2023-01-27T22:31:42.224Z,11.80
2023-01-27T22:34:09.660Z,13.15
2023-01-27T22:36:36.664Z,7.53
2023-01-27T22:39:03.988Z,9.13
2023-01-27T22:41:31.196Z,11.13
2023-01-27T22:43:57.677Z,9.13
2023-01-27T22:46:24.226Z,10.05
2023-01-27T22:48:50.647Z,10.18
2023-01-27T22:51:17.194Z,7.28
2023-01-27T22:53:43.956Z,10.45
2023-01-27T22:56:10.421Z,10.98
2023-01-27T22:58:36.870Z,7.10
2023-01-27T23:01:07.491Z,10.15
2023-01-27T23:03:34.035Z,8.32
2023-01-27T23:06:05.079Z,10.38
2023-01-27T23:08:32.784Z,10.25
2023-01-27T23:11:01.486Z,9.25
2023-01-27T23:13:31.751Z,17.38
2023-01-27T23:15:58.838Z,7.73
2023-01-27T23:18:25.273Z,11.30
2023-01-27T23:20:52.990Z,8.23
2023-01-27T23:23:19.648Z,8.50
2023-01-27T23:25:47.499Z,8.27
2023-01-27T23:28:16.094Z,7.82
2023-01-27T23:30:47.274Z,13.50
2023-01-27T23:33:15.003Z,12.18
2023-01-27T23:35:41.839Z,8.85
2023-01-27T23:38:19.343Z,5.40
2023-01-27T23:40:54.325Z,6.82
2023-01-27T23:43:22.096Z,7.85
2023-01-27T23:45:52.870Z,21.10
2023-01-27T23:48:19.821Z,10.90
2023-01-27T23:50:46.231Z,10.02
2023-01-27T23:53:12.929Z,7.90
2023-01-27T23:55:39.325Z,7.20
2023-01-27T23:58:06.323Z,8.40
